SWA2966 KLAS-PHNL
Flight info
| Callsign | SWA2966 |
|---|---|
| Flight time | N/A |
| Altitude | 34000 |
| Route | JOHKR5 KENNO OAK BEBOP/N0457F360 R464 BEKME/N0448F380 R464 BITTA INOYI1 |
| Aircraft | B738/M-SDE2E3FGHIRWXY/LB1 |
Departure
| Time | N/A |
|---|---|
| Airport | Harry Reid International Airport (KLAS) |
Arrival
| Time | 2026-04-30 21:33 |
|---|---|
| Airport | Daniel K. Inouye International Airport (PHNL) |
| Time | Latitude | Longitude | Altitude | Speed | Heading |
|---|---|---|---|---|---|
| 2026-04-30 17:56 | 34.18560 | -133.90373 | 34087 ft | 426 kts | 246° |
| 2026-04-30 17:58 | 34.11400 | -134.09932 | 34086 ft | 426 kts | 245° |
| 2026-04-30 18:00 | 34.01804 | -134.35965 | 34096 ft | 426 kts | 245° |
| 2026-04-30 18:01 | 33.95781 | -134.52218 | 34086 ft | 426 kts | 245° |
| 2026-04-30 18:02 | 33.88508 | -134.71738 | 34090 ft | 428 kts | 245° |
| 2026-04-30 18:04 | 33.81184 | -134.91273 | 34085 ft | 428 kts | 245° |
| 2026-04-30 18:06 | 33.71358 | -135.17311 | 34076 ft | 428 kts | 244° |
| 2026-04-30 18:08 | 33.62737 | -135.39981 | 34071 ft | 428 kts | 244° |
| 2026-04-30 18:10 | 33.52836 | -135.65831 | 34069 ft | 427 kts | 244° |
| 2026-04-30 18:11 | 33.44134 | -135.88394 | 34076 ft | 426 kts | 243° |
| 2026-04-30 18:13 | 33.37909 | -136.04432 | 34089 ft | 426 kts | 244° |
| 2026-04-30 18:14 | 33.31657 | -136.20473 | 34091 ft | 427 kts | 244° |
| 2026-04-30 18:15 | 33.24087 | -136.39789 | 34097 ft | 429 kts | 243° |
| 2026-04-30 18:16 | 33.19029 | -136.52634 | 34090 ft | 429 kts | 243° |
| 2026-04-30 18:17 | 33.16487 | -136.59078 | 34094 ft | 429 kts | 243° |
| 2026-04-30 18:18 | 33.12676 | -136.68700 | 34098 ft | 430 kts | 243° |
| 2026-04-30 18:18 | 33.10113 | -136.75160 | 34098 ft | 431 kts | 243° |
| 2026-04-30 18:19 | 33.07551 | -136.81612 | 34096 ft | 430 kts | 243° |
| 2026-04-30 18:19 | 33.04988 | -136.88049 | 34097 ft | 430 kts | 243° |
| 2026-04-30 18:20 | 33.02437 | -136.94442 | 34094 ft | 430 kts | 243° |
| 2026-04-30 18:20 | 32.99863 | -137.00882 | 34090 ft | 432 kts | 243° |
| 2026-04-30 18:21 | 32.97275 | -137.07346 | 34089 ft | 432 kts | 243° |
| 2026-04-30 18:21 | 32.94688 | -137.13798 | 34096 ft | 431 kts | 243° |
| 2026-04-30 18:22 | 32.92115 | -137.20198 | 34098 ft | 431 kts | 243° |
| 2026-04-30 18:22 | 32.88224 | -137.29854 | 34098 ft | 431 kts | 243° |
| 2026-04-30 18:23 | 32.85625 | -137.36294 | 34096 ft | 432 kts | 243° |
| 2026-04-30 18:23 | 32.83016 | -137.42741 | 34089 ft | 433 kts | 243° |
| 2026-04-30 18:24 | 32.79108 | -137.52380 | 34098 ft | 433 kts | 242° |
| 2026-04-30 18:25 | 32.76489 | -137.58825 | 34096 ft | 433 kts | 242° |
| 2026-04-30 18:25 | 32.72561 | -137.68465 | 34096 ft | 434 kts | 242° |
| 2026-04-30 18:26 | 32.68604 | -137.78154 | 34096 ft | 435 kts | 242° |
| 2026-04-30 18:27 | 32.64633 | -137.87843 | 34096 ft | 436 kts | 242° |
| 2026-04-30 18:28 | 32.60667 | -137.97507 | 34095 ft | 436 kts | 242° |
| 2026-04-30 18:28 | 32.56672 | -138.07202 | 34098 ft | 436 kts | 242° |
| 2026-04-30 18:29 | 32.51350 | -138.20085 | 34098 ft | 437 kts | 242° |
| 2026-04-30 18:30 | 32.46002 | -138.32978 | 34093 ft | 436 kts | 242° |
| 2026-04-30 18:31 | 32.41981 | -138.42647 | 34098 ft | 436 kts | 242° |
| 2026-04-30 18:32 | 32.37972 | -138.52256 | 34104 ft | 436 kts | 242° |
| 2026-04-30 18:33 | 32.33938 | -138.61900 | 34104 ft | 436 kts | 242° |
| 2026-04-30 18:33 | 32.29924 | -138.71467 | 34102 ft | 434 kts | 242° |
| 2026-04-30 18:34 | 32.25895 | -138.81053 | 34105 ft | 435 kts | 242° |
| 2026-04-30 18:35 | 32.23201 | -138.87439 | 34105 ft | 434 kts | 242° |
| 2026-04-30 18:35 | 32.20524 | -138.93781 | 34105 ft | 434 kts | 242° |
| 2026-04-30 18:36 | 32.16486 | -139.03326 | 34105 ft | 433 kts | 242° |
| 2026-04-30 18:37 | 32.12444 | -139.12849 | 34105 ft | 433 kts | 242° |
| 2026-04-30 18:37 | 32.09766 | -139.19148 | 34105 ft | 433 kts | 242° |
| 2026-04-30 18:38 | 32.07064 | -139.25491 | 34104 ft | 433 kts | 241° |
| 2026-04-30 18:38 | 32.04359 | -139.31828 | 34105 ft | 433 kts | 242° |
| 2026-04-30 18:39 | 32.01653 | -139.38156 | 34105 ft | 432 kts | 241° |
| 2026-04-30 18:39 | 31.98962 | -139.44445 | 34105 ft | 433 kts | 241° |
| 2026-04-30 18:40 | 31.96240 | -139.50788 | 34106 ft | 435 kts | 241° |
| 2026-04-30 18:40 | 31.93511 | -139.57140 | 34105 ft | 434 kts | 241° |
| 2026-04-30 18:41 | 31.90787 | -139.63471 | 34104 ft | 433 kts | 241° |
| 2026-04-30 18:41 | 31.88077 | -139.69751 | 34104 ft | 433 kts | 241° |
| 2026-04-30 18:42 | 31.85351 | -139.76061 | 34104 ft | 432 kts | 241° |
| 2026-04-30 18:42 | 31.81259 | -139.85514 | 34106 ft | 433 kts | 241° |
| 2026-04-30 18:45 | 31.66216 | -140.20053 | 34106 ft | 433 kts | 241° |
| 2026-04-30 18:46 | 31.63468 | -140.26331 | 34105 ft | 433 kts | 241° |
| 2026-04-30 18:46 | 31.60710 | -140.32614 | 34105 ft | 433 kts | 241° |
| 2026-04-30 18:47 | 31.57945 | -140.38902 | 34111 ft | 434 kts | 241° |
| 2026-04-30 18:47 | 31.55200 | -140.45145 | 34114 ft | 433 kts | 241° |
| 2026-04-30 18:48 | 31.52431 | -140.51422 | 34114 ft | 433 kts | 241° |
| 2026-04-30 18:48 | 31.49658 | -140.57697 | 34113 ft | 434 kts | 241° |
| 2026-04-30 18:49 | 31.46884 | -140.63968 | 34112 ft | 433 kts | 241° |
| 2026-04-30 18:49 | 31.44111 | -140.70228 | 34114 ft | 434 kts | 241° |
| 2026-04-30 18:50 | 31.41349 | -140.76445 | 34109 ft | 431 kts | 241° |
| 2026-04-30 18:50 | 31.38597 | -140.82637 | 34112 ft | 428 kts | 240° |
| 2026-04-30 18:51 | 31.35846 | -140.88813 | 34112 ft | 428 kts | 240° |
| 2026-04-30 18:51 | 31.33090 | -140.94989 | 34115 ft | 428 kts | 241° |
| 2026-04-30 18:52 | 31.30350 | -141.01119 | 34115 ft | 428 kts | 240° |
| 2026-04-30 18:52 | 31.27590 | -141.07283 | 34115 ft | 428 kts | 240° |
| 2026-04-30 18:53 | 31.24826 | -141.13452 | 34115 ft | 428 kts | 240° |
| 2026-04-30 18:53 | 31.22059 | -141.19610 | 34114 ft | 428 kts | 240° |
| 2026-04-30 18:54 | 31.19308 | -141.25723 | 34114 ft | 428 kts | 240° |
| 2026-04-30 18:54 | 31.16533 | -141.31879 | 34116 ft | 429 kts | 240° |
| 2026-04-30 18:55 | 31.13750 | -141.38041 | 34114 ft | 429 kts | 240° |
| 2026-04-30 18:55 | 31.09587 | -141.47229 | 34112 ft | 429 kts | 240° |
| 2026-04-30 18:56 | 31.05406 | -141.56444 | 34115 ft | 429 kts | 240° |
| 2026-04-30 18:57 | 31.01213 | -141.65658 | 34104 ft | 429 kts | 240° |
| 2026-04-30 18:57 | 30.98429 | -141.71762 | 34067 ft | 429 kts | 240° |
| 2026-04-30 18:58 | 30.94233 | -141.80948 | 34065 ft | 428 kts | 240° |
| 2026-04-30 18:59 | 30.90023 | -141.90142 | 34067 ft | 430 kts | 240° |
| 2026-04-30 19:00 | 30.84402 | -142.02379 | 34068 ft | 430 kts | 240° |
| 2026-04-30 19:01 | 30.78750 | -142.14645 | 34068 ft | 430 kts | 240° |
| 2026-04-30 19:02 | 30.74494 | -142.23854 | 34068 ft | 432 kts | 240° |
| 2026-04-30 19:03 | 30.68828 | -142.36084 | 34069 ft | 430 kts | 240° |
| 2026-04-30 19:04 | 30.63131 | -142.48344 | 34069 ft | 432 kts | 240° |
| 2026-04-30 19:05 | 30.57420 | -142.60586 | 34066 ft | 431 kts | 240° |
| 2026-04-30 19:06 | 30.51715 | -142.72783 | 34069 ft | 432 kts | 240° |
| 2026-04-30 19:06 | 30.47405 | -142.81966 | 34066 ft | 432 kts | 240° |
| 2026-04-30 19:07 | 30.43111 | -142.91105 | 34068 ft | 432 kts | 240° |
| 2026-04-30 19:08 | 30.37339 | -143.03342 | 34067 ft | 434 kts | 240° |
| 2026-04-30 19:09 | 30.32999 | -143.12522 | 34068 ft | 433 kts | 240° |
| 2026-04-30 19:09 | 30.30121 | -143.18594 | 34070 ft | 434 kts | 240° |
| 2026-04-30 19:10 | 30.24301 | -143.30847 | 34070 ft | 434 kts | 240° |
| 2026-04-30 19:11 | 30.19953 | -143.39984 | 34068 ft | 435 kts | 240° |
| 2026-04-30 19:12 | 30.17033 | -143.46102 | 34068 ft | 435 kts | 240° |
| 2026-04-30 19:12 | 30.14104 | -143.52229 | 34067 ft | 436 kts | 240° |
| 2026-04-30 19:13 | 30.08242 | -143.64473 | 34067 ft | 436 kts | 240° |
| 2026-04-30 19:14 | 30.05322 | -143.70552 | 34076 ft | 436 kts | 240° |
| 2026-04-30 19:14 | 30.02375 | -143.76680 | 34078 ft | 437 kts | 240° |
| 2026-04-30 19:15 | 29.99425 | -143.82805 | 34078 ft | 436 kts | 240° |
| 2026-04-30 19:15 | 29.95019 | -143.91938 | 34077 ft | 436 kts | 240° |
| 2026-04-30 19:16 | 29.92064 | -143.98050 | 34078 ft | 436 kts | 239° |
| 2026-04-30 19:17 | 29.87630 | -144.07202 | 34076 ft | 436 kts | 239° |
| 2026-04-30 19:17 | 29.83204 | -144.16321 | 34075 ft | 437 kts | 239° |
| 2026-04-30 19:18 | 29.78750 | -144.25475 | 34078 ft | 437 kts | 239° |
| 2026-04-30 19:19 | 29.75781 | -144.31563 | 34078 ft | 437 kts | 239° |
| 2026-04-30 19:19 | 29.71327 | -144.40676 | 34076 ft | 438 kts | 239° |
| 2026-04-30 19:20 | 29.68347 | -144.46774 | 34079 ft | 437 kts | 239° |
| 2026-04-30 19:21 | 29.63863 | -144.55908 | 34086 ft | 438 kts | 239° |
| 2026-04-30 19:22 | 29.57885 | -144.68070 | 34088 ft | 439 kts | 239° |
| 2026-04-30 19:23 | 29.48876 | -144.86323 | 34085 ft | 439 kts | 238° |
| 2026-04-30 19:24 | 29.44344 | -144.95472 | 34084 ft | 440 kts | 238° |
| 2026-04-30 19:25 | 29.36791 | -145.10678 | 34086 ft | 440 kts | 238° |
| 2026-04-30 19:26 | 29.30715 | -145.22871 | 34091 ft | 440 kts | 238° |
| 2026-04-30 19:27 | 29.26168 | -145.31968 | 34088 ft | 441 kts | 238° |
| 2026-04-30 19:28 | 29.21589 | -145.41111 | 34085 ft | 441 kts | 238° |
| 2026-04-30 19:29 | 29.15474 | -145.53290 | 34094 ft | 441 kts | 238° |
| 2026-04-30 19:30 | 29.09363 | -145.65417 | 34095 ft | 442 kts | 237° |
| 2026-04-30 19:31 | 29.03212 | -145.77597 | 34096 ft | 443 kts | 237° |
| 2026-04-30 19:31 | 28.98607 | -145.86688 | 34098 ft | 442 kts | 237° |
| 2026-04-30 19:32 | 28.95518 | -145.92771 | 34099 ft | 443 kts | 237° |
| 2026-04-30 19:32 | 28.92426 | -145.98855 | 34096 ft | 443 kts | 237° |
| 2026-04-30 19:33 | 28.89350 | -146.04902 | 34092 ft | 445 kts | 237° |
| 2026-04-30 19:33 | 28.86226 | -146.11031 | 34089 ft | 450 kts | 237° |
| 2026-04-30 19:34 | 28.83074 | -146.17206 | 34095 ft | 450 kts | 237° |
| 2026-04-30 19:35 | 28.78358 | -146.26431 | 34096 ft | 448 kts | 237° |
| 2026-04-30 19:35 | 28.75232 | -146.32529 | 34093 ft | 449 kts | 237° |
| 2026-04-30 19:36 | 28.72079 | -146.38674 | 34103 ft | 449 kts | 237° |
| 2026-04-30 19:36 | 28.67338 | -146.47897 | 34105 ft | 450 kts | 237° |
| 2026-04-30 19:37 | 28.64172 | -146.54046 | 34105 ft | 450 kts | 237° |
| 2026-04-30 19:37 | 28.61026 | -146.60148 | 34107 ft | 451 kts | 237° |
| 2026-04-30 19:38 | 28.57845 | -146.66301 | 34105 ft | 451 kts | 237° |
| 2026-04-30 19:38 | 28.54658 | -146.72461 | 34105 ft | 452 kts | 237° |
| 2026-04-30 19:39 | 28.51465 | -146.78627 | 34105 ft | 453 kts | 237° |
| 2026-04-30 19:39 | 28.48282 | -146.84761 | 34106 ft | 454 kts | 237° |
| 2026-04-30 19:40 | 28.45071 | -146.90941 | 34105 ft | 454 kts | 237° |
| 2026-04-30 19:40 | 28.41852 | -146.97127 | 34105 ft | 455 kts | 237° |
| 2026-04-30 19:41 | 28.38626 | -147.03316 | 34105 ft | 456 kts | 237° |
| 2026-04-30 19:41 | 28.35406 | -147.09484 | 34104 ft | 458 kts | 237° |
| 2026-04-30 19:42 | 28.32154 | -147.15707 | 34106 ft | 459 kts | 237° |
| 2026-04-30 19:42 | 28.28890 | -147.21943 | 34105 ft | 460 kts | 237° |
| 2026-04-30 19:43 | 28.25612 | -147.28196 | 34105 ft | 462 kts | 237° |
| 2026-04-30 19:44 | 28.20703 | -147.37542 | 34112 ft | 464 kts | 237° |
| 2026-04-30 19:44 | 28.17393 | -147.43833 | 34112 ft | 465 kts | 237° |
| 2026-04-30 19:45 | 28.14074 | -147.50134 | 34113 ft | 466 kts | 237° |
| 2026-04-30 19:45 | 28.10769 | -147.56397 | 34115 ft | 467 kts | 237° |
| 2026-04-30 19:46 | 28.07427 | -147.62714 | 34112 ft | 468 kts | 237° |
| 2026-04-30 19:46 | 28.04080 | -147.69041 | 34114 ft | 469 kts | 237° |
| 2026-04-30 19:47 | 28.00723 | -147.75376 | 34112 ft | 470 kts | 237° |
| 2026-04-30 19:47 | 27.97387 | -147.81659 | 34141 ft | 469 kts | 237° |
| 2026-04-30 19:48 | 27.94025 | -147.87980 | 34157 ft | 469 kts | 237° |
| 2026-04-30 19:48 | 27.90657 | -147.94305 | 34159 ft | 470 kts | 237° |
| 2026-04-30 19:49 | 27.87284 | -148.00631 | 34159 ft | 470 kts | 237° |
| 2026-04-30 19:49 | 27.82242 | -148.10064 | 34159 ft | 469 kts | 237° |
| 2026-04-30 19:50 | 27.78870 | -148.16363 | 34158 ft | 468 kts | 237° |
| 2026-04-30 19:50 | 27.75495 | -148.22656 | 34163 ft | 468 kts | 237° |
| 2026-04-30 19:51 | 27.72123 | -148.28934 | 34169 ft | 468 kts | 237° |
| 2026-04-30 19:51 | 27.68771 | -148.35171 | 34169 ft | 468 kts | 237° |
| 2026-04-30 19:52 | 27.65396 | -148.41437 | 34167 ft | 466 kts | 237° |
| 2026-04-30 19:52 | 27.62029 | -148.47680 | 34169 ft | 466 kts | 237° |
| 2026-04-30 19:53 | 27.58679 | -148.53881 | 34170 ft | 467 kts | 238° |
| 2026-04-30 19:53 | 27.55302 | -148.60125 | 34169 ft | 466 kts | 238° |
| 2026-04-30 19:54 | 27.51931 | -148.66347 | 34169 ft | 465 kts | 238° |
| 2026-04-30 19:54 | 27.48561 | -148.72565 | 34169 ft | 464 kts | 238° |
| 2026-04-30 19:55 | 27.45193 | -148.78762 | 34170 ft | 464 kts | 238° |
| 2026-04-30 19:55 | 27.41842 | -148.84922 | 34170 ft | 464 kts | 238° |
| 2026-04-30 19:56 | 27.38470 | -148.91112 | 34169 ft | 464 kts | 238° |
| 2026-04-30 19:56 | 27.35098 | -148.97293 | 34169 ft | 463 kts | 238° |
| 2026-04-30 19:57 | 27.31746 | -149.03428 | 34167 ft | 463 kts | 239° |
| 2026-04-30 19:57 | 27.28368 | -149.09601 | 34169 ft | 464 kts | 239° |
| 2026-04-30 19:58 | 27.24991 | -149.15766 | 34168 ft | 464 kts | 239° |
| 2026-04-30 19:58 | 27.21610 | -149.21927 | 34171 ft | 463 kts | 239° |
| 2026-04-30 19:59 | 27.18225 | -149.28091 | 34171 ft | 464 kts | 239° |
| 2026-04-30 20:00 | 27.13161 | -149.37292 | 34170 ft | 463 kts | 239° |
| 2026-04-30 20:00 | 27.09772 | -149.43441 | 34169 ft | 463 kts | 239° |
| 2026-04-30 20:01 | 27.04678 | -149.52663 | 34166 ft | 464 kts | 239° |
| 2026-04-30 20:01 | 27.01282 | -149.58803 | 34167 ft | 463 kts | 239° |
| 2026-04-30 20:02 | 26.96208 | -149.67957 | 34175 ft | 463 kts | 239° |
| 2026-04-30 20:03 | 26.91111 | -149.77135 | 34178 ft | 462 kts | 239° |
| 2026-04-30 20:03 | 26.87733 | -149.83209 | 34178 ft | 462 kts | 239° |
| 2026-04-30 20:04 | 26.84331 | -149.89312 | 34180 ft | 462 kts | 239° |
| 2026-04-30 20:05 | 26.79237 | -149.98445 | 34179 ft | 461 kts | 239° |
| 2026-04-30 20:05 | 26.74150 | -150.07543 | 34179 ft | 463 kts | 240° |
| 2026-04-30 20:06 | 26.70727 | -150.13654 | 34178 ft | 463 kts | 240° |
| 2026-04-30 20:06 | 26.67310 | -150.19745 | 34178 ft | 462 kts | 240° |
| 2026-04-30 20:07 | 26.64468 | -150.24805 | 34176 ft | 462 kts | 240° |
| 2026-04-30 20:08 | 26.58788 | -150.34905 | 34178 ft | 462 kts | 240° |
| 2026-04-30 20:08 | 26.55368 | -150.40976 | 34179 ft | 462 kts | 240° |
| 2026-04-30 20:09 | 26.52523 | -150.46016 | 34179 ft | 462 kts | 240° |
| 2026-04-30 20:09 | 26.46819 | -150.56109 | 34180 ft | 462 kts | 240° |
| 2026-04-30 20:10 | 26.42230 | -150.64213 | 34179 ft | 462 kts | 240° |
| 2026-04-30 20:11 | 26.37100 | -150.73254 | 34178 ft | 462 kts | 240° |
| 2026-04-30 20:11 | 26.33659 | -150.79309 | 34178 ft | 463 kts | 240° |
| 2026-04-30 20:12 | 26.28489 | -150.88389 | 34184 ft | 463 kts | 240° |
| 2026-04-30 20:13 | 26.25056 | -150.94409 | 34180 ft | 463 kts | 239° |
| 2026-04-30 20:13 | 26.21598 | -151.00465 | 34180 ft | 463 kts | 239° |
| 2026-04-30 20:14 | 26.18140 | -151.06513 | 34178 ft | 463 kts | 239° |
| 2026-04-30 20:14 | 26.14676 | -151.12565 | 34181 ft | 464 kts | 239° |
| 2026-04-30 20:15 | 26.11228 | -151.18583 | 34179 ft | 464 kts | 239° |
| 2026-04-30 20:15 | 26.07752 | -151.24634 | 34178 ft | 464 kts | 240° |
| 2026-04-30 20:16 | 26.04279 | -151.30679 | 34179 ft | 464 kts | 239° |
| 2026-04-30 20:16 | 26.00801 | -151.36721 | 34178 ft | 464 kts | 239° |
| 2026-04-30 20:17 | 25.97320 | -151.42760 | 34176 ft | 461 kts | 239° |
| 2026-04-30 20:17 | 25.93890 | -151.48705 | 34178 ft | 460 kts | 239° |
| 2026-04-30 20:18 | 25.90428 | -151.54700 | 34180 ft | 462 kts | 239° |
| 2026-04-30 20:18 | 25.86949 | -151.60712 | 34180 ft | 463 kts | 239° |
| 2026-04-30 20:19 | 25.83488 | -151.66684 | 34176 ft | 463 kts | 239° |
| 2026-04-30 20:19 | 25.80007 | -151.72688 | 34178 ft | 463 kts | 239° |
| 2026-04-30 20:20 | 25.76515 | -151.78701 | 34178 ft | 464 kts | 239° |
| 2026-04-30 20:20 | 25.73017 | -151.84712 | 34177 ft | 463 kts | 239° |
| 2026-04-30 20:21 | 25.69543 | -151.90676 | 34178 ft | 464 kts | 239° |
| 2026-04-30 20:21 | 25.66046 | -151.96681 | 34178 ft | 463 kts | 239° |
| 2026-04-30 20:22 | 25.62546 | -152.02675 | 34177 ft | 463 kts | 239° |
| 2026-04-30 20:22 | 25.59043 | -152.08666 | 34179 ft | 463 kts | 239° |
| 2026-04-30 20:23 | 25.55539 | -152.14654 | 34179 ft | 464 kts | 239° |
| 2026-04-30 20:23 | 25.52053 | -152.20601 | 34179 ft | 463 kts | 239° |
| 2026-04-30 20:24 | 25.48548 | -152.26576 | 34178 ft | 462 kts | 239° |
| 2026-04-30 20:24 | 25.45043 | -152.32541 | 34179 ft | 462 kts | 239° |
| 2026-04-30 20:25 | 25.39809 | -152.41434 | 34180 ft | 461 kts | 239° |
| 2026-04-30 20:26 | 25.34556 | -152.50346 | 34178 ft | 461 kts | 239° |
| 2026-04-30 20:26 | 25.29304 | -152.59237 | 34178 ft | 460 kts | 239° |
| 2026-04-30 20:27 | 25.22325 | -152.71024 | 34178 ft | 460 kts | 239° |
| 2026-04-30 20:28 | 25.15311 | -152.82844 | 34179 ft | 459 kts | 239° |
| 2026-04-30 20:30 | 25.06578 | -152.97521 | 34178 ft | 459 kts | 239° |
| 2026-04-30 20:31 | 24.96071 | -153.15115 | 34178 ft | 459 kts | 239° |
| 2026-04-30 20:32 | 24.87287 | -153.29773 | 34179 ft | 458 kts | 239° |
| 2026-04-30 20:33 | 24.82043 | -153.38510 | 34179 ft | 458 kts | 239° |
| 2026-04-30 20:34 | 24.76768 | -153.47276 | 34178 ft | 458 kts | 239° |
| 2026-04-30 20:35 | 24.71515 | -153.55990 | 34178 ft | 457 kts | 239° |
| 2026-04-30 20:35 | 24.66242 | -153.64722 | 34179 ft | 456 kts | 239° |
| 2026-04-30 20:36 | 24.62730 | -153.70530 | 34180 ft | 456 kts | 239° |
| 2026-04-30 20:37 | 24.57479 | -153.79197 | 34179 ft | 456 kts | 239° |
| 2026-04-30 20:37 | 24.53963 | -153.84995 | 34178 ft | 456 kts | 239° |
| 2026-04-30 20:38 | 24.50446 | -153.90784 | 34178 ft | 455 kts | 239° |
| 2026-04-30 20:38 | 24.46933 | -153.96562 | 34178 ft | 455 kts | 239° |
| 2026-04-30 20:39 | 24.41684 | -154.05185 | 34179 ft | 455 kts | 239° |
| 2026-04-30 20:40 | 24.36389 | -154.13864 | 34179 ft | 457 kts | 239° |
| 2026-04-30 20:40 | 24.32852 | -154.19653 | 34178 ft | 456 kts | 239° |
| 2026-04-30 20:41 | 24.27572 | -154.28274 | 34178 ft | 456 kts | 238° |
| 2026-04-30 20:41 | 24.24009 | -154.34025 | 34178 ft | 456 kts | 238° |
| 2026-04-30 20:42 | 24.20444 | -154.39780 | 34178 ft | 457 kts | 238° |
| 2026-04-30 20:43 | 24.15124 | -154.48377 | 34177 ft | 457 kts | 238° |
| 2026-04-30 20:43 | 24.11548 | -154.54137 | 34178 ft | 458 kts | 238° |
| 2026-04-30 20:44 | 24.06171 | -154.62793 | 34177 ft | 459 kts | 238° |
| 2026-04-30 20:45 | 23.98995 | -154.74313 | 34177 ft | 460 kts | 238° |
| 2026-04-30 20:45 | 23.95411 | -154.80061 | 34179 ft | 453 kts | 238° |
| 2026-04-30 20:46 | 23.88285 | -154.91472 | 34181 ft | 457 kts | 238° |
| 2026-04-30 20:47 | 23.82926 | -155.00030 | 34178 ft | 457 kts | 238° |
| 2026-04-30 20:48 | 23.77544 | -155.08614 | 34179 ft | 457 kts | 238° |
| 2026-04-30 20:48 | 23.73948 | -155.14340 | 34178 ft | 458 kts | 238° |
| 2026-04-30 20:49 | 23.70367 | -155.20035 | 34177 ft | 458 kts | 238° |
| 2026-04-30 20:50 | 23.63682 | -155.27482 | 34193 ft | 464 kts | 220° |
| 2026-04-30 20:50 | 23.58494 | -155.31689 | 34185 ft | 466 kts | 217° |
| 2026-04-30 20:51 | 23.53291 | -155.35872 | 34180 ft | 463 kts | 219° |
| 2026-04-30 20:51 | 23.45634 | -155.42229 | 34178 ft | 463 kts | 218° |
| 2026-04-30 20:52 | 23.40469 | -155.46438 | 34178 ft | 464 kts | 218° |
| 2026-04-30 20:53 | 23.32768 | -155.52742 | 34177 ft | 463 kts | 218° |
| 2026-04-30 20:53 | 23.27627 | -155.56949 | 34181 ft | 462 kts | 218° |
| 2026-04-30 20:54 | 23.19928 | -155.63228 | 34250 ft | 462 kts | 218° |
| 2026-04-30 20:55 | 23.12242 | -155.69497 | 34248 ft | 462 kts | 218° |
| 2026-04-30 20:55 | 23.07120 | -155.73665 | 34249 ft | 460 kts | 218° |
| 2026-04-30 20:56 | 22.99431 | -155.79918 | 34255 ft | 460 kts | 218° |
| 2026-04-30 20:57 | 22.91784 | -155.86128 | 34256 ft | 458 kts | 218° |
| 2026-04-30 20:57 | 22.86677 | -155.90269 | 34253 ft | 458 kts | 218° |
| 2026-04-30 20:58 | 22.79022 | -155.96471 | 34249 ft | 458 kts | 218° |
| 2026-04-30 20:58 | 22.73922 | -156.00598 | 34242 ft | 458 kts | 218° |
| 2026-04-30 20:59 | 22.66264 | -156.06787 | 34243 ft | 465 kts | 218° |
| 2026-04-30 21:00 | 22.55943 | -156.15112 | 34175 ft | 460 kts | 219° |
| 2026-04-30 21:01 | 22.48283 | -156.21284 | 34171 ft | 459 kts | 219° |
| 2026-04-30 21:02 | 22.40601 | -156.27460 | 34170 ft | 459 kts | 218° |
| 2026-04-30 21:02 | 22.35837 | -156.31973 | 34183 ft | 453 kts | 234° |
| 2026-04-30 21:02 | 22.34206 | -156.34851 | 34189 ft | 447 kts | 248° |
| 2026-04-30 21:03 | 22.33266 | -156.37982 | 34198 ft | 442 kts | 262° |
| 2026-04-30 21:03 | 22.33036 | -156.41272 | 34199 ft | 438 kts | 276° |
| 2026-04-30 21:03 | 22.33357 | -156.44538 | 34197 ft | 437 kts | 279° |
| 2026-04-30 21:04 | 22.34177 | -156.51066 | 34187 ft | 439 kts | 281° |
| 2026-04-30 21:04 | 22.33795 | -156.60923 | 34207 ft | 451 kts | 252° |
| 2026-04-30 21:05 | 22.32351 | -156.63900 | 34219 ft | 457 kts | 237° |
| 2026-04-30 21:05 | 22.30219 | -156.66471 | 34205 ft | 463 kts | 223° |
| 2026-04-30 21:05 | 22.25250 | -156.70934 | 34175 ft | 466 kts | 221° |
| 2026-04-30 21:06 | 22.20225 | -156.75318 | 34174 ft | 464 kts | 221° |
| 2026-04-30 21:06 | 22.15241 | -156.79779 | 33957 ft | 468 kts | 222° |
| 2026-04-30 21:07 | 22.12749 | -156.82007 | 33701 ft | 462 kts | 222° |
| 2026-04-30 21:07 | 22.10308 | -156.84171 | 33452 ft | 460 kts | 221° |
| 2026-04-30 21:07 | 22.07823 | -156.86365 | 33061 ft | 464 kts | 221° |
| 2026-04-30 21:07 | 22.05332 | -156.88570 | 32529 ft | 462 kts | 221° |
| 2026-04-30 21:08 | 22.02854 | -156.90767 | 31956 ft | 460 kts | 221° |
| 2026-04-30 21:08 | 22.00383 | -156.92958 | 31329 ft | 461 kts | 221° |
| 2026-04-30 21:08 | 21.97908 | -156.95154 | 30705 ft | 461 kts | 221° |
| 2026-04-30 21:08 | 21.95431 | -156.97349 | 30083 ft | 460 kts | 221° |
| 2026-04-30 21:09 | 21.92956 | -156.99538 | 29426 ft | 462 kts | 221° |
| 2026-04-30 21:09 | 21.90495 | -157.01715 | 28749 ft | 465 kts | 221° |
| 2026-04-30 21:09 | 21.87990 | -157.03929 | 27995 ft | 466 kts | 221° |
| 2026-04-30 21:09 | 21.85484 | -157.06142 | 27248 ft | 466 kts | 221° |
| 2026-04-30 21:10 | 21.82978 | -157.08354 | 26502 ft | 466 kts | 221° |
| 2026-04-30 21:10 | 21.80470 | -157.10569 | 25758 ft | 467 kts | 221° |
| 2026-04-30 21:10 | 21.77954 | -157.12792 | 25012 ft | 470 kts | 221° |
| 2026-04-30 21:10 | 21.75427 | -157.15021 | 24263 ft | 469 kts | 221° |
| 2026-04-30 21:11 | 21.72903 | -157.17242 | 23513 ft | 467 kts | 221° |
| 2026-04-30 21:11 | 21.70415 | -157.19432 | 22772 ft | 463 kts | 221° |
| 2026-04-30 21:11 | 21.68103 | -157.21795 | 22037 ft | 464 kts | 227° |
| 2026-04-30 21:11 | 21.65842 | -157.24264 | 21289 ft | 462 kts | 227° |
| 2026-04-30 21:12 | 21.63611 | -157.26735 | 20538 ft | 459 kts | 228° |
| 2026-04-30 21:12 | 21.61403 | -157.29200 | 19790 ft | 456 kts | 228° |
| 2026-04-30 21:12 | 21.59205 | -157.31648 | 19038 ft | 454 kts | 227° |
| 2026-04-30 21:12 | 21.57012 | -157.34071 | 18278 ft | 451 kts | 227° |
| 2026-04-30 21:13 | 21.54829 | -157.36475 | 17544 ft | 448 kts | 227° |
| 2026-04-30 21:13 | 21.52688 | -157.38830 | 16809 ft | 445 kts | 227° |
| 2026-04-30 21:13 | 21.50536 | -157.41204 | 16058 ft | 442 kts | 227° |
| 2026-04-30 21:13 | 21.48399 | -157.43563 | 15318 ft | 439 kts | 227° |
| 2026-04-30 21:14 | 21.46564 | -157.45589 | 14663 ft | 436 kts | 226° |
| 2026-04-30 21:14 | 21.44547 | -157.47812 | 14204 ft | 416 kts | 226° |
| 2026-04-30 21:14 | 21.42575 | -157.50028 | 13644 ft | 406 kts | 231° |
| 2026-04-30 21:14 | 21.41091 | -157.52566 | 13100 ft | 399 kts | 246° |
| 2026-04-30 21:15 | 21.39973 | -157.55269 | 12499 ft | 395 kts | 248° |
| 2026-04-30 21:15 | 21.38921 | -157.57935 | 11888 ft | 391 kts | 245° |
| 2026-04-30 21:15 | 21.37233 | -157.60158 | 11597 ft | 378 kts | 220° |
| 2026-04-30 21:15 | 21.35185 | -157.61814 | 11173 ft | 360 kts | 215° |
| 2026-04-30 21:16 | 21.33181 | -157.63326 | 10802 ft | 344 kts | 214° |
| 2026-04-30 21:16 | 21.31268 | -157.64768 | 10463 ft | 328 kts | 214° |
| 2026-04-30 21:16 | 21.29445 | -157.66146 | 10175 ft | 313 kts | 214° |
| 2026-04-30 21:16 | 21.27712 | -157.67463 | 9949 ft | 298 kts | 214° |
| 2026-04-30 21:17 | 21.26063 | -157.68724 | 9601 ft | 288 kts | 214° |
| 2026-04-30 21:17 | 21.24443 | -157.69965 | 8998 ft | 291 kts | 214° |
| 2026-04-30 21:17 | 21.22833 | -157.71207 | 8368 ft | 278 kts | 214° |
| 2026-04-30 21:17 | 21.21301 | -157.72399 | 7742 ft | 267 kts | 214° |
| 2026-04-30 21:18 | 21.19835 | -157.73562 | 7113 ft | 258 kts | 217° |
| 2026-04-30 21:18 | 21.18701 | -157.75018 | 6539 ft | 250 kts | 233° |
| 2026-04-30 21:18 | 21.17691 | -157.76571 | 6031 ft | 256 kts | 234° |
| 2026-04-30 21:18 | 21.16694 | -157.78139 | 6007 ft | 250 kts | 235° |
| 2026-04-30 21:19 | 21.15713 | -157.79691 | 6005 ft | 251 kts | 234° |
| 2026-04-30 21:19 | 21.14765 | -157.81191 | 6007 ft | 248 kts | 234° |
| 2026-04-30 21:19 | 21.13794 | -157.82728 | 6001 ft | 246 kts | 234° |
| 2026-04-30 21:19 | 21.12824 | -157.84264 | 5998 ft | 250 kts | 234° |
| 2026-04-30 21:20 | 21.11857 | -157.85793 | 5996 ft | 246 kts | 234° |
| 2026-04-30 21:20 | 21.10898 | -157.87312 | 6000 ft | 246 kts | 234° |
| 2026-04-30 21:20 | 21.09938 | -157.88832 | 5995 ft | 246 kts | 234° |
| 2026-04-30 21:20 | 21.08977 | -157.90355 | 5996 ft | 247 kts | 234° |
| 2026-04-30 21:21 | 21.08031 | -157.91851 | 6003 ft | 245 kts | 234° |
| 2026-04-30 21:21 | 21.07063 | -157.93366 | 5996 ft | 246 kts | 230° |
| 2026-04-30 21:21 | 21.04255 | -157.95341 | 6040 ft | 245 kts | 205° |
| 2026-04-30 21:22 | 21.02751 | -157.96183 | 6012 ft | 242 kts | 204° |
| 2026-04-30 21:22 | 20.98270 | -157.98677 | 6006 ft | 243 kts | 205° |
| 2026-04-30 21:23 | 20.97039 | -157.99880 | 5895 ft | 251 kts | 239° |
| 2026-04-30 21:23 | 20.96613 | -158.01699 | 5317 ft | 252 kts | 275° |
| 2026-04-30 21:23 | 20.97777 | -158.05079 | 4190 ft | 239 kts | 298° |
| 2026-04-30 21:24 | 20.98524 | -158.06650 | 3619 ft | 237 kts | 302° |
| 2026-04-30 21:24 | 20.99476 | -158.07987 | 3259 ft | 211 kts | 333° |
| 2026-04-30 21:24 | 21.00766 | -158.08291 | 2991 ft | 182 kts | 18° |
| 2026-04-30 21:24 | 21.01867 | -158.07748 | 2782 ft | 173 kts | 32° |
| 2026-04-30 21:25 | 21.04004 | -158.06767 | 2274 ft | 167 kts | 19° |
| 2026-04-30 21:25 | 21.05134 | -158.06472 | 2048 ft | 167 kts | 19° |
| 2026-04-30 21:25 | 21.06272 | -158.06163 | 2031 ft | 171 kts | 18° |
| 2026-04-30 21:26 | 21.08543 | -158.05548 | 2012 ft | 169 kts | 19° |
| 2026-04-30 21:26 | 21.09651 | -158.05248 | 1985 ft | 162 kts | 19° |
| 2026-04-30 21:27 | 21.11798 | -158.04667 | 1999 ft | 160 kts | 20° |
| 2026-04-30 21:27 | 21.12892 | -158.04368 | 2006 ft | 175 kts | 19° |
| 2026-04-30 21:27 | 21.14077 | -158.04045 | 2017 ft | 180 kts | 18° |
| 2026-04-30 21:28 | 21.16661 | -158.03347 | 2010 ft | 198 kts | 18° |
| 2026-04-30 21:28 | 21.17973 | -158.02995 | 2011 ft | 194 kts | 18° |
| 2026-04-30 21:28 | 21.20628 | -158.02277 | 2005 ft | 198 kts | 17° |
| 2026-04-30 21:29 | 21.21953 | -158.01920 | 2012 ft | 197 kts | 18° |
| 2026-04-30 21:29 | 21.25823 | -158.00666 | 1953 ft | 184 kts | 41° |
| 2026-04-30 21:30 | 21.27329 | -157.98746 | 2034 ft | 158 kts | 53° |
| 2026-04-30 21:31 | 21.29180 | -157.96083 | 1301 ft | 140 kts | 55° |
| 2026-04-30 21:31 | 21.30309 | -157.94461 | 606 ft | 133 kts | 50° |
| 2026-04-30 21:32 | 21.31453 | -157.92878 | 167 ft | 133 kts | 56° |
| 2026-04-30 21:32 | 21.32000 | -157.92090 | 24 ft | 130 kts | 53° |
| 2026-04-30 21:32 | 21.32486 | -157.91398 | 23 ft | 81 kts | 52° |
| 2026-04-30 21:32 | 21.32767 | -157.91008 | 23 ft | 57 kts | 52° |
| 2026-04-30 21:33 | 21.32927 | -157.90779 | 23 ft | 24 kts | 52° |
| 2026-04-30 21:33 | 21.32988 | -157.90944 | 23 ft | 22 kts | 236° |
| 2026-04-30 21:33 | 21.32896 | -157.91080 | 23 ft | 23 kts | 233° |
| 2026-04-30 21:34 | 21.32800 | -157.91216 | 23 ft | 23 kts | 239° |
| 2026-04-30 21:34 | 21.32865 | -157.91430 | 23 ft | 12 kts | 0° |
| 2026-04-30 21:34 | 21.32871 | -157.91430 | 23 ft | 0 kts | 0° |